Time;durP1;ratioP1;P1;durP2;ratioP2;P2;SDS_P1;SDS_P2;PMS_P1;PMS_P2;Temp;Humidity;BMP_temperature;BMP_pressure;BME280_temperature;BME280_humidity;BME280_pressure;Samples;Min_cycle;Max_cycle;Signal;HPM_P1;HPM_P2
2021/09/29 00:00:23;;;;;;;1.30;1.20;;;;;;;22.20;46.48;98552.94;5036467;28;20200;-59
2021/09/29 00:02:49;;;;;;;1.30;1.20;;;;;;;22.20;46.63;98555.59;5036629;28;20194;-60
2021/09/29 00:05:17;;;;;;;1.40;1.30;;;;;;;22.22;46.60;98563.38;5035675;28;20231;-59
2021/09/29 00:07:43;;;;;;;1.33;1.23;;;;;;;22.18;46.53;98554.13;5036316;28;20194;-58
2021/09/29 00:10:10;;;;;;;1.30;1.20;;;;;;;22.19;46.63;98553.91;5036295;28;20225;-59
2021/09/29 00:12:37;;;;;;;1.40;1.23;;;;;;;22.22;46.27;98552.72;5036292;28;20203;-59
2021/09/29 00:15:10;;;;;;;1.40;1.30;;;;;;;22.22;46.25;98547.41;5036242;28;20247;-59
2021/09/29 00:17:37;;;;;;;1.20;1.00;;;;;;;22.22;46.43;98548.25;5036260;28;20174;-61
2021/09/29 00:20:05;;;;;;;1.47;1.33;;;;;;;22.20;46.23;98538.81;5036211;28;20190;-59
2021/09/29 00:22:32;;;;;;;1.40;1.30;;;;;;;22.21;46.54;98535.97;5034931;28;20229;-59
2021/09/29 00:24:59;;;;;;;1.37;1.20;;;;;;;22.21;46.32;98533.31;5036212;28;20221;-59
2021/09/29 00:27:25;;;;;;;1.20;1.20;;;;;;;22.20;46.27;98536.16;5036084;28;20564;-59
2021/09/29 00:29:54;;;;;;;1.00;1.00;;;;;;;22.18;46.35;98530.19;5035891;28;20700;-59
2021/09/29 00:32:20;;;;;;;1.30;1.20;;;;;;;22.16;46.74;98538.34;5034815;28;20201;-59
2021/09/29 00:34:47;;;;;;;1.47;1.13;;;;;;;22.15;46.63;98533.22;5036006;28;20186;-59
2021/09/29 00:37:13;;;;;;;1.20;1.13;;;;;;;22.16;46.54;98534.88;5035810;28;20189;-59
2021/09/29 00:39:40;;;;;;;1.13;1.03;;;;;;;22.14;46.65;98540.34;5035837;28;20222;-59
2021/09/29 00:42:06;;;;;;;1.30;1.20;;;;;;;22.15;46.48;98536.69;5035783;28;20187;-59
2021/09/29 00:44:33;;;;;;;1.20;1.10;;;;;;;22.17;46.66;98539.97;5035722;28;20212;-59
2021/09/29 00:47:00;;;;;;;1.23;1.13;;;;;;;22.19;46.62;98535.31;5035673;28;20212;-59
2021/09/29 00:49:26;;;;;;;1.73;1.47;;;;;;;22.21;46.43;98541.28;5035665;28;20614;-58
2021/09/29 00:51:55;;;;;;;1.20;1.10;;;;;;;22.21;46.30;98535.13;5035942;28;20190;-59
2021/09/29 00:54:26;;;;;;;1.00;1.00;;;;;;;22.22;46.30;98539.44;5035687;28;20224;-59
2021/09/29 00:56:53;;;;;;;1.33;1.23;;;;;;;22.21;46.56;98537.78;5036109;28;20196;-59
2021/09/29 00:59:20;;;;;;;1.30;1.20;;;;;;;22.21;46.40;98538.63;5035093;28;20704;-59
2021/09/29 01:01:47;;;;;;;1.20;1.10;;;;;;;22.19;46.32;98537.16;5035604;28;20190;-61
2021/09/29 01:04:14;;;;;;;1.27;1.17;;;;;;;22.20;46.22;98531.66;5035441;28;20683;-59
2021/09/29 01:06:52;;;;;;;1.20;1.13;;;;;;;22.18;46.41;98535.50;5035498;28;20200;-58
2021/09/29 01:09:42;;;;;;;1.20;1.10;;;;;;;22.18;46.64;98535.50;5035511;28;20215;-58
2021/09/29 01:12:36;;;;;;;1.40;1.30;;;;;;;22.19;46.39;98531.84;5035760;28;20220;-59
2021/09/29 01:15:28;;;;;;;1.27;1.20;;;;;;;22.18;46.43;98536.31;5035904;28;20243;-59
2021/09/29 01:18:06;;;;;;;1.40;1.30;;;;;;;22.18;46.40;98530.19;5032584;28;20213;-59
2021/09/29 01:21:02;;;;;;;1.43;1.20;;;;;;;22.18;46.56;98538.16;5035117;28;20189;-59
2021/09/29 01:23:40;;;;;;;1.20;1.10;;;;;;;22.18;46.21;98540.81;5032055;28;20198;-59
2021/09/29 01:26:12;;;;;;;1.30;1.20;;;;;;;22.19;46.38;98539.81;5034887;28;20208;-59
2021/09/29 01:28:42;;;;;;;1.07;1.07;;;;;;;22.18;46.46;98530.19;5034932;28;20217;-59
2021/09/29 01:31:09;;;;;;;1.33;1.10;;;;;;;22.17;46.38;98539.19;5035228;28;20641;-59
2021/09/29 01:33:38;;;;;;;1.40;1.30;;;;;;;22.16;46.41;98526.91;5034980;28;20215;-59
2021/09/29 01:36:06;;;;;;;1.33;1.23;;;;;;;22.16;46.41;98529.56;5035226;28;20190;-59
2021/09/29 01:38:34;;;;;;;1.10;0.93;;;;;;;22.18;46.34;98531.00;5033473;28;20266;-60
2021/09/29 01:41:01;;;;;;;1.30;1.20;;;;;;;22.18;46.52;98530.19;5034707;28;20244;-59
2021/09/29 01:43:30;;;;;;;1.30;1.20;;;;;;;22.18;46.53;98536.31;5034583;28;20194;-59
2021/09/29 01:45:57;;;;;;;1.30;1.20;;;;;;;22.18;46.42;98538.16;5033205;28;20213;-59
2021/09/29 01:48:24;;;;;;;1.30;1.10;;;;;;;22.16;46.45;98527.69;5034428;28;20208;-59
2021/09/29 01:50:59;;;;;;;1.30;1.20;;;;;;;22.16;46.53;98527.69;5034503;28;20201;-59
2021/09/29 01:53:31;;;;;;;1.30;1.00;;;;;;;22.20;46.31;98529.00;5034544;28;20235;-59
2021/09/29 01:56:00;;;;;;;1.00;1.00;;;;;;;22.17;46.39;98531.19;5034743;28;20232;-59
2021/09/29 01:58:31;;;;;;;1.07;1.00;;;;;;;22.16;46.41;98524.25;5034980;28;20213;-59
2021/09/29 02:00:58;;;;;;;1.20;1.10;;;;;;;22.17;46.51;98528.53;5034563;28;20170;-59
2021/09/29 02:03:25;;;;;;;1.40;1.30;;;;;;;22.16;46.52;98525.03;5034281;28;20213;-59
2021/09/29 02:05:52;;;;;;;1.30;1.10;;;;;;;22.16;46.51;98522.38;5034151;28;20578;-59
2021/09/29 02:08:19;;;;;;;1.13;1.13;;;;;;;22.15;46.46;98520.75;5034157;28;20270;-59
2021/09/29 02:10:45;;;;;;;1.57;1.10;;;;;;;22.14;46.41;98518.28;5033361;28;20197;-60
2021/09/29 02:13:12;;;;;;;1.07;1.03;;;;;;;22.15;46.43;98517.28;5034044;28;20195;-59
2021/09/29 02:15:38;;;;;;;1.20;1.10;;;;;;;22.16;46.33;98522.38;5034028;28;20201;-58
2021/09/29 02:18:05;;;;;;;1.37;1.27;;;;;;;22.17;46.28;98525.88;5034014;28;20213;-59
2021/09/29 02:20:31;;;;;;;1.30;1.17;;;;;;;22.21;46.14;98520.03;5034688;28;20579;-59
2021/09/29 02:22:58;;;;;;;1.70;1.13;;;;;;;22.26;46.04;98519.44;5033892;28;20193;-59
2021/09/29 02:25:24;;;;;;;1.20;1.10;;;;;;;22.23;46.33;98522.47;5032426;28;20224;-59
2021/09/29 02:27:51;;;;;;;1.33;1.20;;;;;;;22.19;46.44;98523.88;5033652;28;20197;-60
2021/09/29 02:30:17;;;;;;;1.17;1.07;;;;;;;22.16;46.39;98519.72;5033740;28;20193;-59
2021/09/29 02:32:44;;;;;;;1.13;1.07;;;;;;;22.17;46.13;98523.22;5033871;28;20605;-59
2021/09/29 02:35:11;;;;;;;1.27;1.17;;;;;;;22.15;46.43;98523.41;5033624;28;20687;-59
2021/09/29 02:37:38;;;;;;;0.97;0.87;;;;;;;22.19;46.38;98515.88;5032382;28;20182;-59
2021/09/29 02:40:06;;;;;;;1.30;1.20;;;;;;;22.17;46.27;98512.59;5033804;28;20194;-59
2021/09/29 02:42:33;;;;;;;1.23;1.10;;;;;;;22.21;46.32;98519.19;5033583;28;20196;-59
2021/09/29 02:45:00;;;;;;;0.90;0.90;;;;;;;22.17;46.23;98512.59;5033667;28;20532;-59
2021/09/29 02:47:27;;;;;;;0.93;0.93;;;;;;;22.16;46.21;98513.59;5033664;28;20665;-59
2021/09/29 02:49:54;;;;;;;1.10;1.10;;;;;;;22.17;46.22;98515.25;5033374;28;20267;-59
2021/09/29 02:52:21;;;;;;;1.17;1.07;;;;;;;22.16;46.19;98519.72;5033410;28;20193;-59
2021/09/29 02:54:47;;;;;;;1.00;1.00;;;;;;;22.15;46.14;98538.53;5033335;28;20194;-59
2021/09/29 02:57:13;;;;;;;1.30;1.17;;;;;;;22.12;46.37;98540.56;5033463;28;20289;-59
2021/09/29 02:59:40;;;;;;;1.13;0.90;;;;;;;22.11;46.15;98536.25;5033280;28;20218;-59
2021/09/29 03:02:06;;;;;;;0.90;0.90;;;;;;;22.09;46.60;98543.56;5033796;28;20252;-59
2021/09/29 03:04:33;;;;;;;1.17;1.07;;;;;;;22.07;46.49;98545.56;5033224;28;20236;-59
2021/09/29 03:06:59;;;;;;;1.63;1.10;;;;;;;22.09;46.45;98548.06;5033133;28;20208;-59
2021/09/29 03:09:26;;;;;;;0.87;0.87;;;;;;;22.08;46.22;98552.53;5033140;28;20735;-59
2021/09/29 03:11:52;;;;;;;1.03;1.00;;;;;;;22.08;46.34;98554.38;5033130;28;20228;-59
2021/09/29 03:14:19;;;;;;;1.60;1.10;;;;;;;22.06;46.51;98554.56;5033492;28;20186;-61
2021/09/29 03:17:00;;;;;;;1.30;1.20;;;;;;;22.06;46.57;98549.25;5033636;28;20224;-60
2021/09/29 03:19:27;;;;;;;1.00;1.00;;;;;;;22.04;46.53;98553.91;5032902;28;20208;-59
2021/09/29 03:21:54;;;;;;;1.30;1.20;;;;;;;22.01;46.82;98554.28;5033034;28;20640;-59
2021/09/29 03:24:20;;;;;;;1.20;1.10;;;;;;;21.99;46.68;98553.66;5031832;28;20197;-59
2021/09/29 03:26:49;;;;;;;1.13;1.10;;;;;;;22.00;46.83;98554.44;5031608;28;20260;-58
2021/09/29 03:29:16;;;;;;;1.00;1.00;;;;;;;21.99;46.46;98553.66;5032944;28;20210;-59
2021/09/29 03:31:43;;;;;;;1.17;1.17;;;;;;;22.00;46.37;98554.44;5032736;28;20735;-59
2021/09/29 03:34:09;;;;;;;1.17;1.00;;;;;;;22.03;46.71;98559.41;5032937;28;20201;-59
2021/09/29 03:36:36;;;;;;;1.03;1.03;;;;;;;22.03;46.54;98562.91;5032908;28;20190;-60
2021/09/29 03:39:03;;;;;;;0.80;0.80;;;;;;;22.05;46.50;98558.22;5033030;28;20676;-59
2021/09/29 03:41:30;;;;;;;1.00;1.00;;;;;;;22.06;46.63;98561.72;5032761;28;20196;-60
2021/09/29 03:43:57;;;;;;;1.13;1.13;;;;;;;22.05;46.36;98558.22;5032729;28;20560;-59
2021/09/29 03:46:23;;;;;;;1.20;1.10;;;;;;;22.05;46.66;98560.88;5032721;28;20617;-59
2021/09/29 03:48:50;;;;;;;1.20;1.20;;;;;;;22.03;46.64;98557.59;5032794;28;20208;-59
2021/09/29 03:51:16;;;;;;;1.20;1.10;;;;;;;22.03;46.51;98560.25;5031597;28;20180;-59
2021/09/29 03:53:45;;;;;;;1.03;1.03;;;;;;;22.03;46.40;98556.75;5032661;28;20727;-59
2021/09/29 03:56:12;;;;;;;1.20;1.10;;;;;;;22.02;46.54;98558.59;5032611;28;20198;-59
2021/09/29 03:58:38;;;;;;;1.20;1.10;;;;;;;22.02;46.46;98553.28;5033091;28;20213;-59
2021/09/29 04:01:05;;;;;;;0.90;0.90;;;;;;;22.06;46.20;98548.44;5032653;28;20201;-59
2021/09/29 04:03:31;;;;;;;1.20;1.10;;;;;;;22.04;46.28;98547.78;5032747;28;20190;-59
2021/09/29 04:05:58;;;;;;;1.20;1.10;;;;;;;22.04;46.59;98543.28;5032795;28;20234;-59
2021/09/29 04:08:24;;;;;;;0.80;0.80;;;;;;;22.03;46.40;98546.13;5032831;28;20221;-59
2021/09/29 04:10:51;;;;;;;1.03;1.00;;;;;;;22.03;46.54;98543.47;5032735;28;20579;-59
2021/09/29 04:13:17;;;;;;;1.33;1.23;;;;;;;22.02;46.66;98537.34;5032617;28;20275;-59
2021/09/29 04:15:44;;;;;;;1.30;1.03;;;;;;;22.03;46.34;98538.13;5033019;28;20186;-59
2021/09/29 04:18:10;;;;;;;1.40;1.30;;;;;;;21.98;46.63;98541.38;5032508;28;20214;-59
2021/09/29 04:20:37;;;;;;;1.20;1.10;;;;;;;22.00;46.60;98538.50;5032402;28;20244;-59
2021/09/29 04:23:03;;;;;;;1.13;1.03;;;;;;;21.99;46.69;98540.34;5033458;28;20248;-59
2021/09/29 04:25:30;;;;;;;1.10;1.00;;;;;;;21.97;46.50;98545.03;5032548;28;20210;-59
2021/09/29 04:27:56;;;;;;;1.23;1.10;;;;;;;21.98;46.43;98554.66;5032470;28;20702;-59
2021/09/29 04:30:23;;;;;;;1.13;1.03;;;;;;;21.96;46.47;98556.66;5032797;28;20186;-59
2021/09/29 04:32:49;;;;;;;1.40;1.30;;;;;;;21.95;46.46;98544.38;5032283;28;20262;-59
2021/09/29 04:35:16;;;;;;;0.97;0.97;;;;;;;21.94;46.56;98545.38;5034607;28;20257;-59
2021/09/29 04:37:42;;;;;;;1.00;1.00;;;;;;;21.97;46.39;98555.66;5035812;28;20601;-59
2021/09/29 04:40:09;;;;;;;1.10;1.10;;;;;;;21.96;46.56;98554.00;5035738;28;20186;-59
2021/09/29 04:42:36;;;;;;;1.00;0.90;;;;;;;21.96;46.93;98562.78;5035695;28;20202;-58
2021/09/29 04:45:03;;;;;;;1.30;1.20;;;;;;;21.97;46.72;98560.97;5035707;28;20183;-59
2021/09/29 04:47:30;;;;;;;1.47;1.20;;;;;;;21.98;46.63;98562.63;5035803;28;20243;-60
2021/09/29 04:49:57;;;;;;;1.00;1.00;;;;;;;22.00;46.26;98567.75;5035548;28;20212;-58
2021/09/29 04:52:24;;;;;;;1.20;1.10;;;;;;;22.01;46.59;98564.91;5035608;28;20199;-59
2021/09/29 04:54:51;;;;;;;1.10;1.00;;;;;;;22.02;46.36;98561.25;5035785;28;20189;-59
2021/09/29 04:57:17;;;;;;;1.10;1.10;;;;;;;22.02;46.49;98561.25;5035425;28;20259;-59
2021/09/29 04:59:44;;;;;;;0.90;0.90;;;;;;;22.04;46.39;98561.88;5035300;28;20205;-58
2021/09/29 05:02:11;;;;;;;1.87;1.10;;;;;;;22.00;46.29;98565.09;5035279;28;20193;-59
2021/09/29 05:04:38;;;;;;;0.90;0.90;;;;;;;21.98;46.40;98565.28;5035325;28;20187;-59
2021/09/29 05:07:05;;;;;;;1.23;1.17;;;;;;;21.97;46.30;98569.75;5035168;28;20217;-59
2021/09/29 05:09:32;;;;;;;1.60;1.30;;;;;;;21.97;46.54;98572.41;5035588;28;20750;-59
2021/09/29 05:12:03;;;;;;;1.33;0.90;;;;;;;21.99;46.30;98574.91;5035204;28;20190;-59
2021/09/29 05:14:30;;;;;;;1.40;1.30;;;;;;;21.97;46.50;98574.25;5035678;28;20181;-59
2021/09/29 05:16:57;;;;;;;1.27;1.17;;;;;;;21.97;46.42;98566.28;5035360;28;20205;-59
2021/09/29 05:19:23;;;;;;;0.97;0.97;;;;;;;21.97;46.56;98571.59;5034890;28;20207;-59
2021/09/29 05:21:50;;;;;;;1.27;1.10;;;;;;;21.99;46.32;98572.25;5034914;28;20192;-59
2021/09/29 05:24:17;;;;;;;1.07;1.07;;;;;;;22.06;46.17;98575.00;5034944;28;20222;-59
2021/09/29 05:26:43;;;;;;;0.93;0.93;;;;;;;22.05;46.17;98571.50;5034902;28;20206;-59
2021/09/29 05:29:11;;;;;;;1.63;1.27;;;;;;;21.94;46.58;98571.94;5035241;28;20206;-59
2021/09/29 05:31:38;;;;;;;1.27;1.17;;;;;;;21.93;46.62;98575.59;5035010;28;20201;-59
2021/09/29 05:34:04;;;;;;;1.30;1.20;;;;;;;21.95;46.59;98578.91;5034914;28;20676;-59
2021/09/29 05:36:31;;;;;;;1.00;1.00;;;;;;;21.97;46.78;98582.22;5035200;28;20579;-59
2021/09/29 05:38:57;;;;;;;1.20;1.10;;;;;;;21.98;46.86;98568.75;5034580;28;20206;-59
2021/09/29 05:41:24;;;;;;;1.07;1.00;;;;;;;22.03;46.64;98570.88;5034936;28;20196;-59
2021/09/29 05:43:50;;;;;;;1.23;1.10;;;;;;;22.08;46.57;98563.16;5034646;28;20182;-59
2021/09/29 05:46:16;;;;;;;1.17;1.00;;;;;;;22.16;46.52;98564.91;5033650;28;20256;-60
2021/09/29 05:48:44;;;;;;;0.93;0.90;;;;;;;22.16;46.35;98564.91;5034595;28;20210;-58
2021/09/29 05:51:10;;;;;;;1.10;1.10;;;;;;;22.20;46.64;98571.53;5033940;28;20239;-60
2021/09/29 05:53:37;;;;;;;1.00;0.90;;;;;;;22.23;46.70;98565.84;5034436;28;20244;-59
2021/09/29 05:56:04;;;;;;;1.07;0.90;;;;;;;22.25;46.48;98569.16;5034242;28;20218;-59
2021/09/29 05:58:30;;;;;;;1.07;1.00;;;;;;;22.27;46.83;98566.28;5034251;28;20264;-59
2021/09/29 06:00:57;;;;;;;1.37;1.20;;;;;;;22.28;46.69;98573.28;5034223;28;20241;-60
2021/09/29 06:03:24;;;;;;;1.20;1.10;;;;;;;22.30;46.62;98565.94;5034188;28;20226;-60
2021/09/29 06:05:50;;;;;;;0.83;0.83;;;;;;;22.31;46.69;98572.91;5034048;28;20209;-59
2021/09/29 06:08:17;;;;;;;0.93;0.83;;;;;;;22.32;46.93;98568.41;5032865;28;20263;-59
2021/09/29 06:10:44;;;;;;;1.00;1.00;;;;;;;22.34;46.81;98572.53;5034124;28;20212;-60
2021/09/29 06:13:10;;;;;;;0.90;0.90;;;;;;;22.37;46.76;98569.50;5034038;28;20191;-59
2021/09/29 06:15:37;;;;;;;0.90;0.90;;;;;;;22.40;46.91;98569.13;5033977;28;20244;-59
2021/09/29 06:18:12;;;;;;;1.00;1.00;;;;;;;22.44;46.73;98571.44;5033768;28;20202;-59
2021/09/29 06:20:42;;;;;;;1.10;1.10;;;;;;;22.44;46.81;98571.44;5033942;28;20181;-59
2021/09/29 06:23:09;;;;;;;1.33;1.23;;;;;;;22.48;46.68;98567.44;5033838;28;20186;-59
2021/09/29 06:25:36;;;;;;;0.97;0.97;;;;;;;22.50;46.66;98568.06;5033712;28;20186;-59
2021/09/29 06:28:03;;;;;;;1.33;1.23;;;;;;;22.51;46.69;98570.53;5032966;28;20689;-63
2021/09/29 06:30:29;;;;;;;1.23;1.13;;;;;;;22.55;46.43;98571.00;5032851;28;20599;-60
2021/09/29 06:32:55;;;;;;;1.70;1.00;;;;;;;22.54;46.43;98572.84;5034247;28;20194;-59
2021/09/29 06:35:23;;;;;;;1.07;0.97;;;;;;;22.53;46.50;98570.38;5033890;28;20246;-60
2021/09/29 06:37:50;;;;;;;1.20;1.10;;;;;;;22.52;46.57;98574.03;5032292;28;20201;-60
2021/09/29 06:40:18;;;;;;;1.40;1.30;;;;;;;22.56;46.27;98571.84;5033513;28;20222;-60
2021/09/29 06:42:46;;;;;;;1.00;1.00;;;;;;;22.58;46.19;98567.97;5033585;28;20182;-60
2021/09/29 06:45:14;;;;;;;1.27;1.17;;;;;;;22.62;46.15;98548.00;5033865;28;20240;-60
2021/09/29 06:47:41;;;;;;;1.30;1.20;;;;;;;22.65;46.11;98557.41;5033288;28;20575;-60
2021/09/29 06:50:09;;;;;;;1.40;1.00;;;;;;;22.65;46.21;98563.56;5033467;28;20312;-60
2021/09/29 06:52:37;;;;;;;1.00;1.00;;;;;;;22.68;46.13;98557.88;5033779;28;20194;-59
2021/09/29 06:55:05;;;;;;;1.40;1.30;;;;;;;22.69;46.18;98558.72;5033453;28;20189;-60
2021/09/29 06:57:32;;;;;;;2.17;1.20;;;;;;;22.68;46.19;98557.88;5033777;28;20183;-59
2021/09/29 06:59:59;;;;;;;1.73;1.33;;;;;;;22.65;46.37;98554.75;5033175;28;20298;-59
2021/09/29 07:02:26;;;;;;;1.23;1.20;;;;;;;22.66;46.03;98562.56;5033603;28;20244;-59
2021/09/29 07:04:53;;;;;;;1.53;1.40;;;;;;;22.71;46.05;98567.31;5033404;28;20189;-59
2021/09/29 07:07:19;;;;;;;1.40;1.30;;;;;;;22.74;46.08;98576.75;5032990;28;20279;-59
2021/09/29 07:09:46;;;;;;;1.30;1.17;;;;;;;22.75;46.08;98570.41;5032977;28;20594;-57
2021/09/29 07:12:12;;;;;;;1.23;1.13;;;;;;;22.73;46.26;98564.47;5033150;28;20652;-58
2021/09/29 07:14:39;;;;;;;1.40;1.20;;;;;;;22.68;46.14;98568.50;5033085;28;20602;-59
2021/09/29 07:17:05;;;;;;;2.27;1.20;;;;;;;22.64;46.26;98571.72;5032891;28;20193;-59
2021/09/29 07:19:32;;;;;;;1.43;1.27;;;;;;;22.60;46.55;98571.28;5032792;28;20283;-59
2021/09/29 07:21:58;;;;;;;3.20;2.17;;;;;;;22.49;46.34;98564.59;5032964;28;20252;-59
2021/09/29 07:24:25;;;;;;;1.90;1.80;;;;;;;22.41;46.10;98570.78;5031665;28;20186;-59
2021/09/29 07:26:51;;;;;;;1.67;1.57;;;;;;;22.38;46.13;98565.84;5032882;28;20209;-60
2021/09/29 07:29:19;;;;;;;1.87;1.40;;;;;;;22.37;46.18;98566.84;5032797;28;20684;-59
2021/09/29 07:31:46;;;;;;;2.27;1.40;;;;;;;22.39;46.16;98569.34;5031564;28;20247;-59
2021/09/29 07:34:12;;;;;;;1.53;1.43;;;;;;;22.39;46.15;98569.34;5032717;28;20190;-59
2021/09/29 07:36:39;;;;;;;2.23;1.70;;;;;;;22.39;46.18;98569.34;5032677;28;20726;-58
2021/09/29 07:39:06;;;;;;;1.53;1.20;;;;;;;22.37;46.24;98577.47;5032699;28;20209;-59
2021/09/29 07:41:33;;;;;;;1.60;1.47;;;;;;;22.34;46.53;98575.19;5032645;28;20198;-59
2021/09/29 07:43:59;;;;;;;1.90;1.63;;;;;;;22.37;46.53;98576.69;5032958;28;20248;-59
2021/09/29 07:46:26;;;;;;;1.90;1.33;;;;;;;22.37;46.28;98577.47;5032799;28;20217;-58
2021/09/29 07:48:53;;;;;;;1.60;1.30;;;;;;;22.40;46.36;98584.28;5032581;28;20708;-59
2021/09/29 07:51:19;;;;;;;1.50;1.30;;;;;;;22.42;46.46;98584.91;5032640;28;20248;-59
2021/09/29 07:53:46;;;;;;;1.37;1.10;;;;;;;22.45;46.65;98589.06;5032614;28;20226;-59
2021/09/29 07:56:12;;;;;;;1.20;1.20;;;;;;;22.46;46.72;98583.53;5032423;28;20600;-59
2021/09/29 07:58:39;;;;;;;1.67;1.27;;;;;;;22.49;46.83;98582.38;5032298;28;20700;-59
2021/09/29 08:01:06;;;;;;;1.90;1.30;;;;;;;22.51;46.87;98583.03;5032706;28;20240;-58
2021/09/29 08:03:33;;;;;;;1.87;1.40;;;;;;;22.51;46.88;98580.38;5032548;28;20194;-58
2021/09/29 08:06:03;;;;;;;1.60;1.50;;;;;;;22.51;46.70;98580.38;5032648;28;20653;-59
2021/09/29 08:08:29;;;;;;;2.13;1.40;;;;;;;22.52;46.68;98582.84;5032670;28;20264;-59
2021/09/29 08:10:56;;;;;;;1.40;1.23;;;;;;;22.53;46.58;98571.19;5035937;28;20190;-59
2021/09/29 08:13:23;;;;;;;1.93;1.40;;;;;;;22.53;46.46;98575.69;5036396;28;20197;-58
2021/09/29 08:15:49;;;;;;;1.40;1.30;;;;;;;22.51;46.53;98569.72;5036105;28;20198;-58
2021/09/29 08:18:16;;;;;;;1.30;1.20;;;;;;;22.48;46.77;98578.06;5036047;28;20216;-59
2021/09/29 08:20:43;;;;;;;2.30;1.40;;;;;;;22.48;46.64;98578.06;5036109;28;20244;-58
2021/09/29 08:23:19;;;;;;;1.40;1.30;;;;;;;22.47;46.54;98577.25;5036271;28;20526;-59
2021/09/29 08:28:39;;;;;;;1.33;1.23;;;;;;;22.43;46.58;98564.47;5035998;28;20224;-58
2021/09/29 08:31:23;;;;;;;1.63;1.40;;;;;;;22.41;46.98;98570.78;5036057;28;20239;-58
2021/09/29 08:34:03;;;;;;;2.27;1.43;;;;;;;22.39;46.87;98570.16;5036121;28;20185;-58
2021/09/29 08:39:04;;;;;;;2.73;1.40;;;;;;;22.43;46.79;98564.47;5035980;28;20221;-58
2021/09/29 08:41:49;;;;;;;1.53;1.43;;;;;;;22.45;46.63;98573.09;5036073;28;20175;-58
2021/09/29 08:44:28;;;;;;;2.07;1.27;;;;;;;22.46;46.81;98572.09;5035985;28;20538;-59
2021/09/29 08:49:50;;;;;;;2.07;1.23;;;;;;;22.50;46.75;98570.75;5035942;28;20216;-58
2021/09/29 08:57:40;;;;;;;1.40;1.23;;;;;;;22.51;46.47;98567.06;5035967;28;20175;-58
2021/09/29 09:16:45;;;;;;;1.63;1.10;;;;;;;22.34;46.89;98556.59;5035584;28;20166;-58
2021/09/29 09:19:13;;;;;;;1.27;1.17;;;;;;;22.35;47.07;98558.25;5035047;28;20582;-58
2021/09/29 09:21:55;;;;;;;1.40;1.30;;;;;;;22.35;47.06;98544.94;5035185;28;20196;-58
2021/09/29 09:24:28;;;;;;;1.27;1.10;;;;;;;22.32;46.96;98550.63;5035429;28;20203;-58
2021/09/29 09:27:01;;;;;;;1.53;1.20;;;;;;;22.33;47.17;98543.47;5035314;28;20202;-55
2021/09/29 09:29:30;;;;;;;1.40;1.30;;;;;;;22.34;46.81;98535.31;5035230;28;20228;-59
2021/09/29 09:32:07;;;;;;;1.00;1.00;;;;;;;22.40;46.74;98545.22;5034986;28;20308;-59
2021/09/29 09:34:34;;;;;;;1.20;1.10;;;;;;;22.84;47.10;98529.41;5034986;28;20190;-62
2021/09/29 09:37:01;;;;;;;3.73;1.80;;;;;;;22.63;46.28;98528.34;5035128;28;20213;-58
2021/09/29 09:39:28;;;;;;;1.50;1.40;;;;;;;22.35;46.83;98534.31;5034772;28;20308;-60
2021/09/29 09:41:59;;;;;;;2.20;1.60;;;;;;;22.25;47.35;98531.94;5034855;28;20212;-59
2021/09/29 09:44:46;;;;;;;1.27;1.17;;;;;;;22.30;47.08;98538.53;5035118;28;20178;-59
2021/09/29 09:47:20;;;;;;;1.67;1.40;;;;;;;22.29;47.38;98540.38;5035014;28;20272;-59
2021/09/29 09:49:48;;;;;;;1.50;1.30;;;;;;;22.32;47.20;98537.34;5034665;28;20213;-60
2021/09/29 09:52:34;;;;;;;1.50;1.40;;;;;;;22.32;47.31;98529.38;5034970;28;20550;-60
2021/09/29 09:55:07;;;;;;;1.67;1.40;;;;;;;22.31;47.04;98525.06;5034841;28;20240;-59
2021/09/29 09:57:36;;;;;;;1.90;1.43;;;;;;;22.14;47.47;98521.75;5034490;28;20188;-60
2021/09/29 10:01:35;;;;;;;2.27;1.67;;;;;;;22.18;47.46;98520.38;5152881;27;20812;-59
2021/09/29 10:04:11;;;;;;;1.60;1.50;;;;;;;22.22;47.52;98520.84;5134025;27;20182;-59
2021/09/29 10:06:38;;;;;;;2.10;1.90;;;;;;;22.22;47.48;98524.34;5152699;27;20640;-59
2021/09/29 10:09:42;;;;;;;2.10;1.77;;;;;;;22.30;47.52;98515.44;5133587;27;20288;-59
2021/09/29 10:12:11;;;;;;;1.77;1.67;;;;;;;22.25;47.59;98520.47;5128868;27;20220;-59
2021/09/29 10:14:49;;;;;;;1.60;1.50;;;;;;;22.27;47.42;98518.44;5152471;27;20187;-59
2021/09/29 10:26:08;;;;;;;2.33;1.50;;;;;;;22.31;47.75;98503.78;5047986;28;20255;-59
2021/09/29 10:28:40;;;;;;;3.80;2.00;;;;;;;22.06;48.01;98511.22;5031319;28;20235;-59
2021/09/29 10:33:59;;;;;;;4.23;2.93;;;;;;;22.35;47.81;98507.72;5151600;27;20179;-59
2021/09/29 10:36:40;;;;;;;5.50;3.77;;;;;;;22.33;47.75;98511.56;5133531;27;20175;-59
2021/09/29 10:45:33;;;;;;;7.13;4.77;;;;;;;22.14;48.49;98528.91;5151348;27;20229;-59
2021/09/29 10:47:43;;;;;;;10.40;5.77;;;;;;;22.16;48.61;98521.59;5137486;27;20203;-60
2021/09/29 11:02:43;;;;;;;10.07;5.43;;;;;;;22.30;48.37;98525.22;5151510;27;20200;-61
2021/09/29 11:31:27;;;;;;;3.93;3.50;;;;;;;22.16;49.21;98569.41;5136745;27;20176;-63
2021/09/29 11:36:31;;;;;;;5.13;3.50;;;;;;;22.18;48.89;98573.53;5136685;27;20200;-63
2021/09/29 11:39:19;;;;;;;4.23;3.50;;;;;;;22.19;49.01;98564.53;5136591;27;20206;-63
2021/09/29 12:14:46;;;;;;;4.13;2.60;;;;;;;22.24;48.63;98545.41;5135923;27;20174;-62
2021/09/29 12:17:19;;;;;;;2.63;2.40;;;;;;;21.96;49.59;98536.22;5136139;27;20187;-62
2021/09/29 12:19:52;;;;;;;4.10;2.70;;;;;;;22.19;48.92;98547.78;5135932;27;20202;-61
2021/09/29 12:22:20;;;;;;;2.87;2.43;;;;;;;21.98;49.19;98549.34;5117825;27;20178;-62
2021/09/29 12:24:51;;;;;;;2.80;2.10;;;;;;;22.21;48.48;98562.56;5134831;27;20232;-61
2021/09/29 13:03:54;;;;;;;2.00;1.87;;;;;;;21.64;49.80;98604.53;5089844;27;20547;-60
2021/09/29 13:06:21;;;;;;;2.93;1.90;;;;;;;21.66;49.49;98599.09;5090381;28;20273;-59
2021/09/29 13:08:47;;;;;;;2.27;1.90;;;;;;;21.76;49.44;98610.28;5090670;28;20230;-59
2021/09/29 13:11:14;;;;;;;2.40;1.70;;;;;;;21.68;49.29;98621.00;5090437;28;20219;-59
2021/09/29 13:13:40;;;;;;;2.33;1.70;;;;;;;21.78;49.58;98632.19;5090216;28;20636;-59
2021/09/29 13:16:07;;;;;;;2.33;1.67;;;;;;;21.91;49.26;98639.56;5090565;28;20210;-59
2021/09/29 13:24:07;;;;;;;1.87;1.53;;;;;;;21.94;49.08;98633.06;5090270;28;20214;-57
2021/09/29 13:37:18;;;;;;;1.83;1.67;;;;;;;22.03;49.05;98647.09;5089976;28;20654;-58
2021/09/29 13:39:45;;;;;;;1.80;1.70;;;;;;;22.09;48.69;98649.84;5090289;28;20644;-57
2021/09/29 13:42:11;;;;;;;2.77;1.50;;;;;;;21.97;49.37;98651.31;5090091;28;20612;-59
2021/09/29 13:44:38;;;;;;;1.83;1.40;;;;;;;21.55;50.08;98648.91;5089469;28;20269;-59
2021/09/29 13:47:05;;;;;;;2.83;1.47;;;;;;;21.31;50.84;98652.56;5089732;28;20189;-59
2021/09/29 13:49:31;;;;;;;2.63;1.57;;;;;;;21.37;50.97;98661.66;5089458;28;20192;-59
2021/09/29 13:51:59;;;;;;;3.30;1.40;;;;;;;21.64;50.21;98660.31;5089564;28;20208;-59
2021/09/29 13:54:26;;;;;;;2.50;1.50;;;;;;;21.83;49.51;98658.22;5088254;28;20218;-59
2021/09/29 13:59:55;;;;;;;1.50;1.40;;;;;;;21.73;49.52;98658.47;5089064;28;20241;-57
2021/09/29 14:02:43;;;;;;;2.23;1.40;;;;;;;21.78;47.65;98669.38;5089293;28;20293;-56
2021/09/29 14:30:03;;;;;;;1.10;0.90;;;;;;;21.91;46.01;98684.72;5075428;28;20339;-60
2021/09/29 14:32:42;;;;;;;1.47;1.00;;;;;;;21.86;46.34;98688.91;5075242;28;20217;-58
2021/09/29 14:35:09;;;;;;;1.10;0.97;;;;;;;21.88;46.72;98710.81;5075466;28;20204;-59
2021/09/29 14:37:35;;;;;;;1.00;1.00;;;;;;;21.89;46.90;98712.47;5073908;28;20725;-60
2021/09/29 14:40:03;;;;;;;2.43;1.20;;;;;;;21.91;46.82;98715.78;5075091;28;20195;-60
2021/09/29 14:42:29;;;;;;;1.00;0.90;;;;;;;21.95;46.56;98712.59;5075165;28;20213;-59
2021/09/29 14:44:56;;;;;;;1.67;1.00;;;;;;;21.96;46.85;98716.91;5075427;28;20291;-60
2021/09/29 14:47:22;;;;;;;1.23;0.97;;;;;;;21.98;46.99;98722.06;5075249;28;20195;-60
2021/09/29 14:49:49;;;;;;;1.50;0.90;;;;;;;22.03;46.61;98725.00;5074808;28;20276;-60
2021/09/29 14:52:15;;;;;;;1.30;1.20;;;;;;;22.05;46.94;98738.94;5074777;28;20258;-60
2021/09/29 14:54:42;;;;;;;1.17;0.83;;;;;;;22.07;47.00;98746.75;5074840;28;20213;-60
2021/09/29 14:57:11;;;;;;;1.47;1.03;;;;;;;21.95;47.33;98754.28;5075069;28;20709;-60
2021/09/29 14:59:41;;;;;;;1.77;1.20;;;;;;;21.95;47.39;98739.16;5075158;28;20251;-60
2021/09/29 15:02:07;;;;;;;0.90;0.87;;;;;;;21.99;47.35;98750.28;5074947;28;20189;-60
2021/09/29 15:04:35;;;;;;;1.07;0.97;;;;;;;21.95;47.33;98754.28;5074537;28;20217;-59